sensor_id;sensor_type;location;lat;lon;timestamp;P1;durP1;ratioP1;P2;durP2;ratioP2
5393;SDS011;2720;52.396;10.064;2022-11-14T00:01:45;69.87;;;30.60;;
5393;SDS011;2720;52.396;10.064;2022-11-14T00:04:12;64.30;;;30.27;;
5393;SDS011;2720;52.396;10.064;2022-11-14T00:06:40;72.20;;;30.93;;
5393;SDS011;2720;52.396;10.064;2022-11-14T00:09:07;77.03;;;31.13;;
5393;SDS011;2720;52.396;10.064;2022-11-14T00:11:34;67.30;;;30.90;;
5393;SDS011;2720;52.396;10.064;2022-11-14T00:14:01;73.53;;;31.63;;
5393;SDS011;2720;52.396;10.064;2022-11-14T00:16:28;79.73;;;31.60;;
5393;SDS011;2720;52.396;10.064;2022-11-14T00:18:55;69.07;;;28.90;;
5393;SDS011;2720;52.396;10.064;2022-11-14T00:21:22;61.23;;;26.73;;
5393;SDS011;2720;52.396;10.064;2022-11-14T00:23:50;70.23;;;31.37;;
5393;SDS011;2720;52.396;10.064;2022-11-14T00:26:17;73.87;;;30.70;;
5393;SDS011;2720;52.396;10.064;2022-11-14T00:28:44;60.73;;;29.60;;
5393;SDS011;2720;52.396;10.064;2022-11-14T00:31:11;65.03;;;30.27;;
5393;SDS011;2720;52.396;10.064;2022-11-14T00:33:38;62.83;;;29.83;;
5393;SDS011;2720;52.396;10.064;2022-11-14T00:36:05;71.17;;;30.07;;
5393;SDS011;2720;52.396;10.064;2022-11-14T00:38:32;60.53;;;27.50;;
5393;SDS011;2720;52.396;10.064;2022-11-14T00:41:01;63.23;;;27.13;;
5393;SDS011;2720;52.396;10.064;2022-11-14T00:43:27;67.47;;;28.73;;
5393;SDS011;2720;52.396;10.064;2022-11-14T00:45:55;72.80;;;31.83;;
5393;SDS011;2720;52.396;10.064;2022-11-14T00:48:22;66.97;;;29.47;;
5393;SDS011;2720;52.396;10.064;2022-11-14T00:50:49;75.07;;;31.63;;
5393;SDS011;2720;52.396;10.064;2022-11-14T00:53:16;66.07;;;28.43;;
5393;SDS011;2720;52.396;10.064;2022-11-14T00:55:43;70.40;;;32.53;;
5393;SDS011;2720;52.396;10.064;2022-11-14T00:58:11;78.17;;;29.37;;
5393;SDS011;2720;52.396;10.064;2022-11-14T01:00:38;71.20;;;31.40;;
5393;SDS011;2720;52.396;10.064;2022-11-14T01:03:05;58.80;;;29.40;;
5393;SDS011;2720;52.396;10.064;2022-11-14T01:05:32;76.03;;;29.17;;
5393;SDS011;2720;52.396;10.064;2022-11-14T01:07:59;70.13;;;32.37;;
5393;SDS011;2720;52.396;10.064;2022-11-14T01:10:26;70.77;;;30.20;;
5393;SDS011;2720;52.396;10.064;2022-11-14T01:12:53;73.67;;;32.17;;
5393;SDS011;2720;52.396;10.064;2022-11-14T01:15:21;70.57;;;31.27;;
5393;SDS011;2720;52.396;10.064;2022-11-14T01:17:48;69.40;;;31.00;;
5393;SDS011;2720;52.396;10.064;2022-11-14T01:20:15;68.33;;;31.10;;
5393;SDS011;2720;52.396;10.064;2022-11-14T01:22:42;71.10;;;30.90;;
5393;SDS011;2720;52.396;10.064;2022-11-14T01:25:09;81.97;;;32.30;;
5393;SDS011;2720;52.396;10.064;2022-11-14T01:27:36;75.20;;;30.67;;
5393;SDS011;2720;52.396;10.064;2022-11-14T01:30:04;70.37;;;31.50;;
5393;SDS011;2720;52.396;10.064;2022-11-14T01:32:33;68.33;;;31.27;;
5393;SDS011;2720;52.396;10.064;2022-11-14T01:35:00;75.80;;;30.40;;
5393;SDS011;2720;52.396;10.064;2022-11-14T01:37:27;73.57;;;28.90;;
5393;SDS011;2720;52.396;10.064;2022-11-14T01:39:53;70.20;;;29.43;;
5393;SDS011;2720;52.396;10.064;2022-11-14T01:42:20;70.63;;;30.20;;
5393;SDS011;2720;52.396;10.064;2022-11-14T01:44:48;68.27;;;30.23;;
5393;SDS011;2720;52.396;10.064;2022-11-14T01:47:18;71.67;;;29.87;;
5393;SDS011;2720;52.396;10.064;2022-11-14T01:49:49;80.20;;;31.87;;
5393;SDS011;2720;52.396;10.064;2022-11-14T01:52:19;67.60;;;29.50;;
5393;SDS011;2720;52.396;10.064;2022-11-14T01:54:49;68.10;;;28.27;;
5393;SDS011;2720;52.396;10.064;2022-11-14T01:57:19;65.20;;;30.60;;
5393;SDS011;2720;52.396;10.064;2022-11-14T01:59:50;76.23;;;30.80;;
5393;SDS011;2720;52.396;10.064;2022-11-14T02:02:20;69.63;;;29.27;;
5393;SDS011;2720;52.396;10.064;2022-11-14T02:04:52;70.20;;;30.87;;
5393;SDS011;2720;52.396;10.064;2022-11-14T02:07:22;71.80;;;29.33;;
5393;SDS011;2720;52.396;10.064;2022-11-14T02:09:52;66.57;;;28.60;;
5393;SDS011;2720;52.396;10.064;2022-11-14T02:12:20;69.27;;;29.23;;
5393;SDS011;2720;52.396;10.064;2022-11-14T02:14:49;70.83;;;30.07;;
5393;SDS011;2720;52.396;10.064;2022-11-14T02:17:19;67.63;;;28.97;;
5393;SDS011;2720;52.396;10.064;2022-11-14T02:19:47;66.17;;;27.77;;
5393;SDS011;2720;52.396;10.064;2022-11-14T02:22:18;68.57;;;31.57;;
5393;SDS011;2720;52.396;10.064;2022-11-14T02:24:45;71.83;;;29.27;;
5393;SDS011;2720;52.396;10.064;2022-11-14T02:27:12;73.77;;;28.80;;
5393;SDS011;2720;52.396;10.064;2022-11-14T02:29:40;82.77;;;29.47;;
5393;SDS011;2720;52.396;10.064;2022-11-14T02:32:08;68.87;;;27.73;;
5393;SDS011;2720;52.396;10.064;2022-11-14T02:34:35;69.30;;;30.70;;
5393;SDS011;2720;52.396;10.064;2022-11-14T02:37:02;79.73;;;30.67;;
5393;SDS011;2720;52.396;10.064;2022-11-14T02:39:30;67.50;;;28.00;;
5393;SDS011;2720;52.396;10.064;2022-11-14T02:41:57;72.30;;;28.80;;
5393;SDS011;2720;52.396;10.064;2022-11-14T02:44:24;82.77;;;28.50;;
5393;SDS011;2720;52.396;10.064;2022-11-14T02:46:51;63.90;;;27.67;;
5393;SDS011;2720;52.396;10.064;2022-11-14T02:49:18;78.03;;;29.07;;
5393;SDS011;2720;52.396;10.064;2022-11-14T02:51:45;60.87;;;28.53;;
5393;SDS011;2720;52.396;10.064;2022-11-14T02:54:12;68.70;;;29.60;;
5393;SDS011;2720;52.396;10.064;2022-11-14T02:56:41;70.90;;;27.93;;
5393;SDS011;2720;52.396;10.064;2022-11-14T02:59:08;67.60;;;28.20;;
5393;SDS011;2720;52.396;10.064;2022-11-14T03:01:35;81.50;;;30.13;;
5393;SDS011;2720;52.396;10.064;2022-11-14T03:04:02;71.83;;;30.67;;
5393;SDS011;2720;52.396;10.064;2022-11-14T03:06:29;77.23;;;31.83;;
5393;SDS011;2720;52.396;10.064;2022-11-14T03:08:56;77.13;;;31.10;;
5393;SDS011;2720;52.396;10.064;2022-11-14T03:11:23;84.37;;;31.90;;
5393;SDS011;2720;52.396;10.064;2022-11-14T03:13:51;72.97;;;31.00;;
5393;SDS011;2720;52.396;10.064;2022-11-14T03:16:18;69.67;;;29.23;;
5393;SDS011;2720;52.396;10.064;2022-11-14T03:18:45;66.60;;;29.50;;
5393;SDS011;2720;52.396;10.064;2022-11-14T03:21:13;70.27;;;28.70;;
5393;SDS011;2720;52.396;10.064;2022-11-14T03:23:41;71.13;;;28.90;;
5393;SDS011;2720;52.396;10.064;2022-11-14T03:26:09;76.60;;;31.77;;
5393;SDS011;2720;52.396;10.064;2022-11-14T03:28:37;67.07;;;28.90;;
5393;SDS011;2720;52.396;10.064;2022-11-14T03:31:07;66.33;;;28.80;;
5393;SDS011;2720;52.396;10.064;2022-11-14T03:33:35;84.03;;;32.53;;
5393;SDS011;2720;52.396;10.064;2022-11-14T03:36:03;82.03;;;30.50;;
5393;SDS011;2720;52.396;10.064;2022-11-14T03:38:31;90.63;;;32.37;;
5393;SDS011;2720;52.396;10.064;2022-11-14T03:40:59;76.90;;;28.60;;
5393;SDS011;2720;52.396;10.064;2022-11-14T03:43:29;82.70;;;31.27;;
5393;SDS011;2720;52.396;10.064;2022-11-14T03:45:57;75.90;;;31.07;;
5393;SDS011;2720;52.396;10.064;2022-11-14T03:48:25;78.97;;;28.97;;
5393;SDS011;2720;52.396;10.064;2022-11-14T03:50:52;86.13;;;31.50;;
5393;SDS011;2720;52.396;10.064;2022-11-14T03:53:19;80.77;;;31.20;;
5393;SDS011;2720;52.396;10.064;2022-11-14T03:55:46;81.03;;;29.53;;
5393;SDS011;2720;52.396;10.064;2022-11-14T03:58:14;73.13;;;29.93;;
5393;SDS011;2720;52.396;10.064;2022-11-14T04:00:40;80.67;;;31.17;;
5393;SDS011;2720;52.396;10.064;2022-11-14T04:03:07;83.53;;;34.50;;
5393;SDS011;2720;52.396;10.064;2022-11-14T04:05:36;83.13;;;30.93;;
5393;SDS011;2720;52.396;10.064;2022-11-14T04:08:03;84.17;;;33.17;;
5393;SDS011;2720;52.396;10.064;2022-11-14T04:10:30;80.40;;;33.43;;
5393;SDS011;2720;52.396;10.064;2022-11-14T04:12:57;81.77;;;31.67;;
5393;SDS011;2720;52.396;10.064;2022-11-14T04:15:24;84.00;;;31.07;;
5393;SDS011;2720;52.396;10.064;2022-11-14T04:17:51;89.90;;;33.30;;
5393;SDS011;2720;52.396;10.064;2022-11-14T04:20:18;86.27;;;32.37;;
5393;SDS011;2720;52.396;10.064;2022-11-14T04:22:46;102.77;;;32.47;;
5393;SDS011;2720;52.396;10.064;2022-11-14T04:25:13;92.30;;;31.20;;
5393;SDS011;2720;52.396;10.064;2022-11-14T04:27:40;85.37;;;33.23;;
5393;SDS011;2720;52.396;10.064;2022-11-14T04:30:08;91.07;;;33.80;;
5393;SDS011;2720;52.396;10.064;2022-11-14T04:32:36;94.60;;;32.97;;
5393;SDS011;2720;52.396;10.064;2022-11-14T04:35:04;99.83;;;34.00;;
5393;SDS011;2720;52.396;10.064;2022-11-14T04:37:31;93.00;;;34.00;;
5393;SDS011;2720;52.396;10.064;2022-11-14T04:39:59;100.73;;;37.10;;
5393;SDS011;2720;52.396;10.064;2022-11-14T04:42:27;84.63;;;33.20;;
5393;SDS011;2720;52.396;10.064;2022-11-14T04:44:54;82.10;;;31.73;;
5393;SDS011;2720;52.396;10.064;2022-11-14T04:47:21;78.37;;;31.17;;
5393;SDS011;2720;52.396;10.064;2022-11-14T04:49:48;88.93;;;31.27;;
5393;SDS011;2720;52.396;10.064;2022-11-14T04:52:15;88.40;;;31.37;;
5393;SDS011;2720;52.396;10.064;2022-11-14T04:54:42;78.90;;;31.47;;
5393;SDS011;2720;52.396;10.064;2022-11-14T04:57:11;82.73;;;29.33;;
5393;SDS011;2720;52.396;10.064;2022-11-14T04:59:37;85.77;;;31.77;;
5393;SDS011;2720;52.396;10.064;2022-11-14T05:02:04;86.23;;;32.90;;
5393;SDS011;2720;52.396;10.064;2022-11-14T05:04:31;90.40;;;31.77;;
5393;SDS011;2720;52.396;10.064;2022-11-14T05:06:58;82.07;;;31.67;;
5393;SDS011;2720;52.396;10.064;2022-11-14T05:09:25;78.03;;;31.37;;
5393;SDS011;2720;52.396;10.064;2022-11-14T05:11:52;82.20;;;32.27;;
5393;SDS011;2720;52.396;10.064;2022-11-14T05:14:21;90.73;;;32.33;;
5393;SDS011;2720;52.396;10.064;2022-11-14T05:16:48;98.83;;;32.07;;
5393;SDS011;2720;52.396;10.064;2022-11-14T05:19:15;90.40;;;30.47;;
5393;SDS011;2720;52.396;10.064;2022-11-14T05:21:42;84.63;;;33.43;;
5393;SDS011;2720;52.396;10.064;2022-11-14T05:24:09;85.17;;;33.10;;
5393;SDS011;2720;52.396;10.064;2022-11-14T05:26:36;93.27;;;32.23;;
5393;SDS011;2720;52.396;10.064;2022-11-14T05:29:03;86.87;;;33.77;;
5393;SDS011;2720;52.396;10.064;2022-11-14T05:31:32;83.37;;;32.40;;
5393;SDS011;2720;52.396;10.064;2022-11-14T05:33:59;102.83;;;34.97;;
5393;SDS011;2720;52.396;10.064;2022-11-14T05:36:26;85.00;;;30.97;;
5393;SDS011;2720;52.396;10.064;2022-11-14T05:38:53;93.10;;;32.33;;
5393;SDS011;2720;52.396;10.064;2022-11-14T05:41:20;73.20;;;31.13;;
5393;SDS011;2720;52.396;10.064;2022-11-14T05:43:47;87.40;;;31.10;;
5393;SDS011;2720;52.396;10.064;2022-11-14T05:46:14;77.33;;;30.40;;
5393;SDS011;2720;52.396;10.064;2022-11-14T05:48:43;81.50;;;31.53;;
5393;SDS011;2720;52.396;10.064;2022-11-14T05:51:11;77.10;;;32.20;;
5393;SDS011;2720;52.396;10.064;2022-11-14T05:53:38;90.67;;;31.77;;
5393;SDS011;2720;52.396;10.064;2022-11-14T05:56:07;89.97;;;35.90;;
5393;SDS011;2720;52.396;10.064;2022-11-14T05:58:36;87.93;;;30.83;;
5393;SDS011;2720;52.396;10.064;2022-11-14T06:01:04;83.23;;;31.83;;
5393;SDS011;2720;52.396;10.064;2022-11-14T06:03:32;85.87;;;30.70;;
5393;SDS011;2720;52.396;10.064;2022-11-14T06:06:02;82.23;;;30.67;;
5393;SDS011;2720;52.396;10.064;2022-11-14T06:08:31;83.80;;;32.37;;
5393;SDS011;2720;52.396;10.064;2022-11-14T06:11:00;79.53;;;32.00;;
5393;SDS011;2720;52.396;10.064;2022-11-14T06:13:28;83.47;;;29.73;;
5393;SDS011;2720;52.396;10.064;2022-11-14T06:15:57;87.17;;;33.43;;
5393;SDS011;2720;52.396;10.064;2022-11-14T06:18:25;72.77;;;29.60;;
5393;SDS011;2720;52.396;10.064;2022-11-14T06:20:53;72.17;;;29.47;;
5393;SDS011;2720;52.396;10.064;2022-11-14T06:23:21;86.20;;;31.70;;
5393;SDS011;2720;52.396;10.064;2022-11-14T06:25:48;70.27;;;30.60;;
5393;SDS011;2720;52.396;10.064;2022-11-14T06:28:15;77.17;;;28.97;;
5393;SDS011;2720;52.396;10.064;2022-11-14T06:30:42;71.53;;;30.43;;
5393;SDS011;2720;52.396;10.064;2022-11-14T06:33:09;75.73;;;29.97;;
5393;SDS011;2720;52.396;10.064;2022-11-14T06:35:36;76.27;;;30.60;;
5393;SDS011;2720;52.396;10.064;2022-11-14T06:38:03;72.03;;;28.90;;
5393;SDS011;2720;52.396;10.064;2022-11-14T06:40:32;70.70;;;27.33;;
5393;SDS011;2720;52.396;10.064;2022-11-14T06:42:59;83.03;;;30.97;;
5393;SDS011;2720;52.396;10.064;2022-11-14T06:45:26;85.97;;;31.70;;
5393;SDS011;2720;52.396;10.064;2022-11-14T06:47:56;88.03;;;31.53;;
5393;SDS011;2720;52.396;10.064;2022-11-14T06:50:24;93.63;;;32.57;;
5393;SDS011;2720;52.396;10.064;2022-11-14T06:52:51;76.30;;;30.17;;
5393;SDS011;2720;52.396;10.064;2022-11-14T06:55:18;86.70;;;32.80;;
5393;SDS011;2720;52.396;10.064;2022-11-14T06:57:46;78.33;;;31.90;;
5393;SDS011;2720;52.396;10.064;2022-11-14T07:00:18;79.60;;;30.83;;
5393;SDS011;2720;52.396;10.064;2022-11-14T07:02:46;92.33;;;32.43;;
5393;SDS011;2720;52.396;10.064;2022-11-14T07:05:13;86.00;;;34.07;;
5393;SDS011;2720;52.396;10.064;2022-11-14T07:07:40;86.33;;;32.53;;
5393;SDS011;2720;52.396;10.064;2022-11-14T07:10:08;88.77;;;31.70;;
5393;SDS011;2720;52.396;10.064;2022-11-14T07:12:35;103.10;;;33.50;;
5393;SDS011;2720;52.396;10.064;2022-11-14T07:15:04;84.70;;;30.13;;
5393;SDS011;2720;52.396;10.064;2022-11-14T07:17:33;89.67;;;33.60;;
5393;SDS011;2720;52.396;10.064;2022-11-14T07:20:00;81.63;;;32.00;;
5393;SDS011;2720;52.396;10.064;2022-11-14T07:22:27;87.00;;;31.70;;
5393;SDS011;2720;52.396;10.064;2022-11-14T07:24:54;85.43;;;31.30;;
5393;SDS011;2720;52.396;10.064;2022-11-14T07:27:21;90.33;;;34.20;;
5393;SDS011;2720;52.396;10.064;2022-11-14T07:29:48;87.20;;;32.57;;
5393;SDS011;2720;52.396;10.064;2022-11-14T07:32:16;81.50;;;33.33;;
5393;SDS011;2720;52.396;10.064;2022-11-14T07:34:43;99.67;;;32.90;;
5393;SDS011;2720;52.396;10.064;2022-11-14T07:37:10;89.33;;;31.67;;
5393;SDS011;2720;52.396;10.064;2022-11-14T07:39:37;84.73;;;31.13;;
5393;SDS011;2720;52.396;10.064;2022-11-14T07:42:04;91.03;;;33.23;;
5393;SDS011;2720;52.396;10.064;2022-11-14T07:44:31;79.53;;;29.90;;
5393;SDS011;2720;52.396;10.064;2022-11-14T07:46:58;81.83;;;32.57;;
5393;SDS011;2720;52.396;10.064;2022-11-14T07:49:26;96.33;;;31.80;;
5393;SDS011;2720;52.396;10.064;2022-11-14T07:51:53;91.40;;;33.17;;
5393;SDS011;2720;52.396;10.064;2022-11-14T07:54:20;71.50;;;30.03;;
5393;SDS011;2720;52.396;10.064;2022-11-14T07:56:47;85.13;;;31.17;;
5393;SDS011;2720;52.396;10.064;2022-11-14T07:59:14;87.97;;;32.00;;
5393;SDS011;2720;52.396;10.064;2022-11-14T08:01:41;90.73;;;34.47;;
5393;SDS011;2720;52.396;10.064;2022-11-14T08:04:08;75.50;;;29.07;;
5393;SDS011;2720;52.396;10.064;2022-11-14T08:06:37;73.50;;;31.07;;
5393;SDS011;2720;52.396;10.064;2022-11-14T08:09:04;89.03;;;31.23;;
5393;SDS011;2720;52.396;10.064;2022-11-14T08:11:31;76.47;;;30.43;;
5393;SDS011;2720;52.396;10.064;2022-11-14T08:14:13;70.83;;;30.00;;
5393;SDS011;2720;52.396;10.064;2022-11-14T08:16:40;84.57;;;31.33;;
5393;SDS011;2720;52.396;10.064;2022-11-14T08:19:07;79.00;;;30.70;;
5393;SDS011;2720;52.396;10.064;2022-11-14T08:21:34;79.00;;;31.30;;
5393;SDS011;2720;52.396;10.064;2022-11-14T08:24:03;83.33;;;31.60;;
5393;SDS011;2720;52.396;10.064;2022-11-14T08:26:30;76.47;;;29.10;;
5393;SDS011;2720;52.396;10.064;2022-11-14T08:28:57;75.47;;;30.43;;
5393;SDS011;2720;52.396;10.064;2022-11-14T08:31:24;86.10;;;31.77;;
5393;SDS011;2720;52.396;10.064;2022-11-14T08:33:52;84.90;;;30.77;;
5393;SDS011;2720;52.396;10.064;2022-11-14T08:36:19;83.43;;;32.00;;
5393;SDS011;2720;52.396;10.064;2022-11-14T08:38:46;94.30;;;33.53;;
5393;SDS011;2720;52.396;10.064;2022-11-14T08:41:14;81.40;;;32.67;;
5393;SDS011;2720;52.396;10.064;2022-11-14T08:43:41;86.70;;;33.40;;
5393;SDS011;2720;52.396;10.064;2022-11-14T08:46:08;66.33;;;29.03;;
5393;SDS011;2720;52.396;10.064;2022-11-14T08:48:35;69.60;;;29.13;;
5393;SDS011;2720;52.396;10.064;2022-11-14T08:51:02;75.60;;;29.73;;
5393;SDS011;2720;52.396;10.064;2022-11-14T08:53:30;78.53;;;33.60;;
5393;SDS011;2720;52.396;10.064;2022-11-14T08:55:57;87.40;;;35.97;;
5393;SDS011;2720;52.396;10.064;2022-11-14T08:58:27;91.07;;;33.00;;
5393;SDS011;2720;52.396;10.064;2022-11-14T09:00:58;74.00;;;29.70;;
5393;SDS011;2720;52.396;10.064;2022-11-14T09:03:26;71.40;;;31.40;;
5393;SDS011;2720;52.396;10.064;2022-11-14T09:05:53;77.27;;;31.20;;
5393;SDS011;2720;52.396;10.064;2022-11-14T09:08:20;67.03;;;29.37;;
5393;SDS011;2720;52.396;10.064;2022-11-14T09:10:47;71.10;;;29.13;;
5393;SDS011;2720;52.396;10.064;2022-11-14T09:13:14;69.17;;;27.97;;
5393;SDS011;2720;52.396;10.064;2022-11-14T09:15:43;70.17;;;28.60;;
5393;SDS011;2720;52.396;10.064;2022-11-14T09:18:10;83.53;;;29.60;;
5393;SDS011;2720;52.396;10.064;2022-11-14T09:20:37;67.57;;;27.67;;
5393;SDS011;2720;52.396;10.064;2022-11-14T09:23:04;72.17;;;26.93;;
5393;SDS011;2720;52.396;10.064;2022-11-14T09:25:31;55.00;;;24.67;;
5393;SDS011;2720;52.396;10.064;2022-11-14T09:28:01;73.47;;;28.43;;
5393;SDS011;2720;52.396;10.064;2022-11-14T09:30:29;64.63;;;30.50;;
5393;SDS011;2720;52.396;10.064;2022-11-14T09:32:59;68.40;;;26.50;;
5393;SDS011;2720;52.396;10.064;2022-11-14T09:35:26;69.43;;;28.67;;
5393;SDS011;2720;52.396;10.064;2022-11-14T09:38:00;74.20;;;28.77;;
5393;SDS011;2720;52.396;10.064;2022-11-14T09:40:27;67.03;;;27.50;;
5393;SDS011;2720;52.396;10.064;2022-11-14T09:42:59;68.33;;;26.70;;
5393;SDS011;2720;52.396;10.064;2022-11-14T09:45:37;66.57;;;25.57;;
5393;SDS011;2720;52.396;10.064;2022-11-14T09:48:14;60.40;;;24.20;;
5393;SDS011;2720;52.396;10.064;2022-11-14T09:50:44;57.53;;;25.37;;
5393;SDS011;2720;52.396;10.064;2022-11-14T09:53:15;70.93;;;26.83;;
5393;SDS011;2720;52.396;10.064;2022-11-14T09:55:48;67.27;;;26.70;;
5393;SDS011;2720;52.396;10.064;2022-11-14T09:58:16;67.87;;;25.27;;
5393;SDS011;2720;52.396;10.064;2022-11-14T10:00:46;69.40;;;28.53;;
5393;SDS011;2720;52.396;10.064;2022-11-14T10:03:21;66.43;;;26.40;;
5393;SDS011;2720;52.396;10.064;2022-11-14T10:06:00;62.73;;;26.43;;
5393;SDS011;2720;52.396;10.064;2022-11-14T10:08:40;52.27;;;24.17;;
5393;SDS011;2720;52.396;10.064;2022-11-14T10:11:16;62.60;;;25.70;;
5393;SDS011;2720;52.396;10.064;2022-11-14T10:14:03;63.67;;;26.57;;
5393;SDS011;2720;52.396;10.064;2022-11-14T10:16:45;66.20;;;25.23;;
5393;SDS011;2720;52.396;10.064;2022-11-14T10:19:22;49.47;;;22.00;;
5393;SDS011;2720;52.396;10.064;2022-11-14T10:22:01;56.77;;;25.10;;
5393;SDS011;2720;52.396;10.064;2022-11-14T10:24:53;62.17;;;26.20;;
5393;SDS011;2720;52.396;10.064;2022-11-14T10:27:39;51.00;;;23.93;;
5393;SDS011;2720;52.396;10.064;2022-11-14T10:30:14;52.93;;;24.60;;
5393;SDS011;2720;52.396;10.064;2022-11-14T10:32:49;59.27;;;25.80;;
5393;SDS011;2720;52.396;10.064;2022-11-14T10:35:37;58.57;;;25.50;;
5393;SDS011;2720;52.396;10.064;2022-11-14T10:38:09;60.27;;;26.33;;
5393;SDS011;2720;52.396;10.064;2022-11-14T10:40:41;52.73;;;25.10;;
5393;SDS011;2720;52.396;10.064;2022-11-14T10:43:15;60.73;;;26.13;;
5393;SDS011;2720;52.396;10.064;2022-11-14T10:45:48;56.43;;;24.23;;
5393;SDS011;2720;52.396;10.064;2022-11-14T10:48:22;55.97;;;24.33;;
5393;SDS011;2720;52.396;10.064;2022-11-14T10:50:56;55.47;;;24.70;;
5393;SDS011;2720;52.396;10.064;2022-11-14T10:53:26;61.60;;;25.00;;
5393;SDS011;2720;52.396;10.064;2022-11-14T10:56:00;54.63;;;25.17;;
5393;SDS011;2720;52.396;10.064;2022-11-14T10:58:27;57.93;;;25.23;;
5393;SDS011;2720;52.396;10.064;2022-11-14T11:00:54;53.43;;;24.73;;
5393;SDS011;2720;52.396;10.064;2022-11-14T11:03:24;46.43;;;22.57;;
5393;SDS011;2720;52.396;10.064;2022-11-14T11:06:08;52.70;;;25.00;;
5393;SDS011;2720;52.396;10.064;2022-11-14T11:08:51;52.70;;;24.63;;
5393;SDS011;2720;52.396;10.064;2022-11-14T11:11:36;52.00;;;24.90;;
5393;SDS011;2720;52.396;10.064;2022-11-14T11:14:04;50.23;;;23.20;;
5393;SDS011;2720;52.396;10.064;2022-11-14T11:16:31;55.17;;;24.10;;
5393;SDS011;2720;52.396;10.064;2022-11-14T11:19:12;47.77;;;21.47;;
5393;SDS011;2720;52.396;10.064;2022-11-14T11:21:47;51.90;;;22.27;;
5393;SDS011;2720;52.396;10.064;2022-11-14T11:24:29;43.43;;;21.30;;
5393;SDS011;2720;52.396;10.064;2022-11-14T11:27:13;41.40;;;19.37;;
5393;SDS011;2720;52.396;10.064;2022-11-14T11:29:47;45.80;;;21.27;;
5393;SDS011;2720;52.396;10.064;2022-11-14T11:32:29;46.73;;;23.63;;
5393;SDS011;2720;52.396;10.064;2022-11-14T11:34:56;45.03;;;22.33;;
5393;SDS011;2720;52.396;10.064;2022-11-14T11:37:27;40.80;;;20.90;;
5393;SDS011;2720;52.396;10.064;2022-11-14T11:39:57;41.17;;;20.60;;
5393;SDS011;2720;52.396;10.064;2022-11-14T11:42:29;43.20;;;21.13;;
5393;SDS011;2720;52.396;10.064;2022-11-14T11:45:00;42.17;;;21.60;;
5393;SDS011;2720;52.396;10.064;2022-11-14T11:47:31;45.90;;;20.57;;
5393;SDS011;2720;52.396;10.064;2022-11-14T11:50:01;42.27;;;21.80;;
5393;SDS011;2720;52.396;10.064;2022-11-14T11:52:32;43.87;;;21.50;;
5393;SDS011;2720;52.396;10.064;2022-11-14T11:55:04;41.90;;;20.90;;
5393;SDS011;2720;52.396;10.064;2022-11-14T11:57:42;41.87;;;19.90;;
5393;SDS011;2720;52.396;10.064;2022-11-14T12:00:13;44.73;;;21.50;;
5393;SDS011;2720;52.396;10.064;2022-11-14T12:02:44;48.73;;;22.33;;
5393;SDS011;2720;52.396;10.064;2022-11-14T12:05:14;40.83;;;20.87;;
5393;SDS011;2720;52.396;10.064;2022-11-14T12:07:45;46.23;;;20.40;;
5393;SDS011;2720;52.396;10.064;2022-11-14T12:10:20;46.67;;;20.83;;
5393;SDS011;2720;52.396;10.064;2022-11-14T12:13:02;46.73;;;22.20;;
5393;SDS011;2720;52.396;10.064;2022-11-14T12:16:02;41.60;;;19.33;;
5393;SDS011;2720;52.396;10.064;2022-11-14T12:21:48;38.40;;;21.40;;
5393;SDS011;2720;52.396;10.064;2022-11-14T12:24:42;37.63;;;19.87;;
5393;SDS011;2720;52.396;10.064;2022-11-14T12:27:36;37.53;;;20.90;;
5393;SDS011;2720;52.396;10.064;2022-11-14T12:30:16;40.00;;;19.60;;
5393;SDS011;2720;52.396;10.064;2022-11-14T12:32:47;44.63;;;20.53;;
5393;SDS011;2720;52.396;10.064;2022-11-14T12:35:18;43.33;;;21.60;;
5393;SDS011;2720;52.396;10.064;2022-11-14T12:37:48;38.47;;;19.67;;
5393;SDS011;2720;52.396;10.064;2022-11-14T12:40:21;41.10;;;20.60;;
5393;SDS011;2720;52.396;10.064;2022-11-14T12:42:51;38.27;;;20.77;;
5393;SDS011;2720;52.396;10.064;2022-11-14T12:48:28;45.80;;;20.70;;
5393;SDS011;2720;52.396;10.064;2022-11-14T12:50:57;36.63;;;20.90;;
5393;SDS011;2720;52.396;10.064;2022-11-14T12:53:41;38.80;;;21.60;;
5393;SDS011;2720;52.396;10.064;2022-11-14T12:59:33;49.80;;;23.30;;
5393;SDS011;2720;52.396;10.064;2022-11-14T13:02:21;46.23;;;20.67;;
5393;SDS011;2720;52.396;10.064;2022-11-14T13:08:06;46.47;;;24.20;;
5393;SDS011;2720;52.396;10.064;2022-11-14T13:10:43;48.10;;;22.87;;
5393;SDS011;2720;52.396;10.064;2022-11-14T13:13:11;43.50;;;21.97;;
5393;SDS011;2720;52.396;10.064;2022-11-14T13:15:58;50.07;;;23.70;;
5393;SDS011;2720;52.396;10.064;2022-11-14T13:18:50;50.30;;;26.33;;
5393;SDS011;2720;52.396;10.064;2022-11-14T13:21:38;56.37;;;24.93;;
5393;SDS011;2720;52.396;10.064;2022-11-14T13:27:43;40.03;;;21.30;;
5393;SDS011;2720;52.396;10.064;2022-11-14T13:30:10;38.93;;;20.53;;
5393;SDS011;2720;52.396;10.064;2022-11-14T13:35:32;46.83;;;22.40;;
5393;SDS011;2720;52.396;10.064;2022-11-14T13:38:16;47.13;;;20.67;;
5393;SDS011;2720;52.396;10.064;2022-11-14T13:41:26;42.93;;;21.80;;
5393;SDS011;2720;52.396;10.064;2022-11-14T13:44:22;36.57;;;20.73;;
5393;SDS011;2720;52.396;10.064;2022-11-14T13:47:07;41.63;;;21.80;;
5393;SDS011;2720;52.396;10.064;2022-11-14T13:49:59;41.93;;;22.90;;
5393;SDS011;2720;52.396;10.064;2022-11-14T13:52:31;38.47;;;23.57;;
5393;SDS011;2720;52.396;10.064;2022-11-14T13:54:59;45.13;;;23.13;;
5393;SDS011;2720;52.396;10.064;2022-11-14T13:57:31;45.30;;;22.33;;
5393;SDS011;2720;52.396;10.064;2022-11-14T14:00:08;44.00;;;22.00;;
5393;SDS011;2720;52.396;10.064;2022-11-14T14:05:52;45.97;;;22.67;;
5393;SDS011;2720;52.396;10.064;2022-11-14T14:08:41;41.07;;;22.53;;
5393;SDS011;2720;52.396;10.064;2022-11-14T14:11:26;45.07;;;22.57;;
5393;SDS011;2720;52.396;10.064;2022-11-14T14:14:05;38.57;;;21.30;;
5393;SDS011;2720;52.396;10.064;2022-11-14T14:16:48;43.20;;;24.13;;
5393;SDS011;2720;52.396;10.064;2022-11-14T14:19:21;40.83;;;21.97;;
5393;SDS011;2720;52.396;10.064;2022-11-14T14:22:00;40.87;;;21.63;;
5393;SDS011;2720;52.396;10.064;2022-11-14T14:24:38;51.77;;;24.63;;
5393;SDS011;2720;52.396;10.064;2022-11-14T14:27:15;54.00;;;26.20;;
5393;SDS011;2720;52.396;10.064;2022-11-14T14:29:51;60.73;;;26.90;;
5393;SDS011;2720;52.396;10.064;2022-11-14T14:32:27;60.43;;;25.57;;
5393;SDS011;2720;52.396;10.064;2022-11-14T14:34:54;61.40;;;28.50;;
5393;SDS011;2720;52.396;10.064;2022-11-14T14:37:25;62.23;;;25.70;;
5393;SDS011;2720;52.396;10.064;2022-11-14T14:39:54;62.63;;;26.37;;
5393;SDS011;2720;52.396;10.064;2022-11-14T14:42:22;48.30;;;24.60;;
5393;SDS011;2720;52.396;10.064;2022-11-14T14:44:50;53.60;;;25.27;;
5393;SDS011;2720;52.396;10.064;2022-11-14T14:47:26;54.73;;;24.73;;
5393;SDS011;2720;52.396;10.064;2022-11-14T14:49:59;51.40;;;26.60;;
5393;SDS011;2720;52.396;10.064;2022-11-14T14:52:29;38.70;;;23.20;;
5393;SDS011;2720;52.396;10.064;2022-11-14T14:54:58;43.83;;;22.73;;
5393;SDS011;2720;52.396;10.064;2022-11-14T14:57:26;42.00;;;23.03;;
5393;SDS011;2720;52.396;10.064;2022-11-14T14:59:58;49.43;;;22.20;;
5393;SDS011;2720;52.396;10.064;2022-11-14T15:02:25;41.70;;;21.97;;
5393;SDS011;2720;52.396;10.064;2022-11-14T15:04:53;57.83;;;23.63;;
5393;SDS011;2720;52.396;10.064;2022-11-14T15:07:21;48.23;;;24.87;;
5393;SDS011;2720;52.396;10.064;2022-11-14T15:09:51;42.23;;;22.23;;
5393;SDS011;2720;52.396;10.064;2022-11-14T15:12:20;44.37;;;23.67;;
5393;SDS011;2720;52.396;10.064;2022-11-14T15:14:48;48.87;;;24.90;;